createdAt,value
2018-07-19T00:02:20.273Z,17.86
2018-07-19T00:04:48.471Z,17.89
2018-07-19T00:07:16.657Z,17.82
2018-07-19T00:09:45.357Z,17.76
2018-07-19T00:12:13.545Z,17.67
2018-07-19T00:14:41.713Z,17.66
2018-07-19T00:17:09.949Z,17.68
2018-07-19T00:19:38.129Z,17.74
2018-07-19T00:22:06.401Z,17.58
2018-07-19T00:24:34.573Z,17.65
2018-07-19T00:27:02.749Z,17.65
2018-07-19T00:29:30.923Z,17.60
2018-07-19T00:31:59.205Z,17.31
2018-07-19T00:34:27.377Z,17.45
2018-07-19T00:36:55.556Z,17.27
2018-07-19T00:39:23.721Z,17.20
2018-07-19T00:41:51.902Z,17.18
2018-07-19T00:44:20.106Z,17.24
2018-07-19T00:46:48.274Z,17.12
2018-07-19T00:49:16.449Z,17.25
2018-07-19T00:51:44.618Z,17.10
2018-07-19T00:54:12.871Z,17.17
2018-07-19T00:56:41.050Z,17.12
2018-07-19T00:59:09.446Z,16.84
2018-07-19T01:01:37.614Z,16.65
2018-07-19T01:04:06.018Z,16.71
2018-07-19T01:06:34.203Z,16.72
2018-07-19T01:09:02.398Z,16.77
2018-07-19T01:11:30.561Z,16.82
2018-07-19T01:13:58.733Z,16.92
2018-07-19T01:16:26.945Z,16.91
2018-07-19T01:18:55.121Z,16.69
2018-07-19T01:21:23.309Z,16.55
2018-07-19T01:23:51.475Z,16.44
2018-07-19T01:26:19.657Z,16.43
2018-07-19T01:28:47.981Z,16.39
2018-07-19T01:31:16.563Z,16.49
2018-07-19T01:33:45.143Z,16.50
2018-07-19T01:36:14.298Z,16.68
2018-07-19T01:38:42.556Z,16.44
2018-07-19T01:41:22.122Z,16.29
2018-07-19T01:43:50.378Z,16.35
2018-07-19T01:46:18.650Z,16.27
2018-07-19T01:48:46.838Z,16.35
2018-07-19T01:51:15.018Z,16.17
2018-07-19T01:53:43.181Z,16.10
2018-07-19T01:56:11.345Z,16.01
2018-07-19T01:58:39.521Z,15.97
2018-07-19T02:01:07.681Z,16.00
2018-07-19T02:03:35.853Z,15.91
2018-07-19T02:06:04.018Z,15.93
2018-07-19T02:08:32.277Z,15.95
2018-07-19T02:11:00.442Z,15.92
2018-07-19T02:13:28.605Z,15.87
2018-07-19T02:15:56.766Z,15.77
2018-07-19T02:18:24.945Z,15.80
2018-07-19T02:20:53.105Z,15.81
2018-07-19T02:23:21.397Z,15.81
2018-07-19T02:25:49.653Z,15.76
2018-07-19T02:28:17.922Z,15.73
2018-07-19T02:30:46.154Z,15.65
2018-07-19T02:33:14.428Z,15.53
2018-07-19T02:35:42.585Z,15.62
2018-07-19T02:38:10.743Z,15.47
2018-07-19T02:40:38.919Z,15.39
2018-07-19T02:43:07.181Z,15.39
2018-07-19T02:45:35.382Z,15.45
2018-07-19T02:48:03.642Z,15.41
2018-07-19T02:50:31.886Z,15.31
2018-07-19T02:53:00.061Z,15.30
2018-07-19T02:55:28.246Z,15.31
2018-07-19T02:57:56.424Z,15.08
2018-07-19T03:00:24.584Z,15.28
2018-07-19T03:02:52.850Z,15.12
2018-07-19T03:05:21.050Z,14.95
2018-07-19T03:07:49.238Z,14.80
2018-07-19T03:10:17.398Z,14.86
2018-07-19T03:12:45.635Z,15.03
2018-07-19T03:15:13.794Z,14.89
2018-07-19T03:17:41.964Z,14.87
2018-07-19T03:20:10.198Z,14.93
2018-07-19T03:22:38.891Z,15.05
2018-07-19T03:25:07.165Z,15.41
2018-07-19T03:27:35.432Z,15.57
2018-07-19T03:30:03.622Z,15.38
2018-07-19T03:32:31.881Z,15.33
2018-07-19T03:35:00.042Z,15.29
2018-07-19T03:37:28.216Z,15.25
2018-07-19T03:39:56.509Z,15.05
2018-07-19T03:42:24.673Z,15.05
2018-07-19T03:44:52.833Z,14.98
2018-07-19T03:47:21.029Z,15.11
2018-07-19T03:49:49.192Z,15.19
2018-07-19T03:52:17.359Z,15.24
2018-07-19T03:54:45.670Z,15.28
2018-07-19T03:57:13.953Z,15.08
2018-07-19T03:59:42.162Z,15.12
2018-07-19T04:02:10.396Z,14.92
2018-07-19T04:04:38.678Z,15.08
2018-07-19T04:07:06.934Z,15.12
2018-07-19T04:09:35.118Z,14.87
2018-07-19T04:12:03.286Z,14.97
2018-07-19T04:14:31.440Z,15.19
2018-07-19T04:16:59.689Z,15.22
2018-07-19T04:19:27.897Z,15.19
2018-07-19T04:21:56.185Z,15.44
2018-07-19T04:24:24.457Z,15.55
2018-07-19T04:26:52.645Z,15.71
2018-07-19T04:29:22.208Z,15.74
2018-07-19T04:31:50.384Z,15.77
2018-07-19T04:34:18.581Z,15.81
2018-07-19T04:36:46.751Z,15.83
2018-07-19T04:39:14.943Z,15.78
2018-07-19T04:41:43.092Z,16.16
2018-07-19T04:44:11.294Z,15.97
2018-07-19T04:46:39.678Z,16.18
2018-07-19T04:49:07.850Z,16.34
2018-07-19T04:51:36.390Z,16.39
2018-07-19T04:54:04.589Z,16.23
2018-07-19T04:56:32.750Z,16.63
2018-07-19T04:59:00.918Z,16.53
2018-07-19T05:01:29.098Z,16.59
2018-07-19T05:03:57.952Z,17.02
2018-07-19T05:06:26.114Z,16.82
2018-07-19T05:08:54.371Z,17.15
2018-07-19T05:11:22.537Z,17.26
2018-07-19T05:13:50.694Z,17.30
2018-07-19T05:16:19.106Z,17.20
2018-07-19T05:18:47.281Z,17.25
2018-07-19T05:21:15.439Z,17.57
2018-07-19T05:23:43.613Z,17.47
2018-07-19T05:26:11.769Z,17.66
2018-07-19T05:28:39.945Z,17.71
2018-07-19T05:31:08.611Z,17.99
2018-07-19T05:33:36.805Z,18.21
2018-07-19T05:36:05.034Z,18.25
2018-07-19T05:38:33.207Z,18.34
2018-07-19T05:41:01.425Z,18.94
2018-07-19T05:43:29.590Z,18.63
2018-07-19T05:45:57.815Z,19.19
2018-07-19T05:48:25.993Z,19.09
2018-07-19T05:50:54.157Z,19.32
2018-07-19T05:53:22.321Z,19.38
2018-07-19T05:55:50.565Z,19.46
2018-07-19T05:58:18.985Z,19.65
2018-07-19T06:00:47.093Z,19.75
2018-07-19T06:03:15.362Z,19.78
2018-07-19T06:05:43.719Z,20.07
2018-07-19T06:08:12.177Z,19.67
2018-07-19T06:10:40.663Z,20.07
2018-07-19T06:13:08.874Z,20.53
2018-07-19T06:15:37.052Z,20.71
2018-07-19T06:18:05.226Z,20.66
2018-07-19T06:20:33.435Z,21.05
2018-07-19T06:23:01.618Z,21.37
2018-07-19T06:25:29.886Z,21.28
2018-07-19T06:27:58.166Z,21.47
2018-07-19T06:30:26.368Z,21.58
2018-07-19T06:32:54.882Z,21.65
2018-07-19T06:35:23.152Z,21.66
2018-07-19T06:37:51.898Z,22.03
2018-07-19T06:40:20.070Z,22.17
2018-07-19T06:42:48.253Z,22.21
2018-07-19T06:45:16.925Z,22.10
2018-07-19T06:47:45.090Z,22.13
2018-07-19T06:50:13.280Z,22.53
2018-07-19T06:52:41.602Z,22.70
2018-07-19T06:55:10.049Z,22.54
2018-07-19T06:57:38.331Z,23.04
2018-07-19T07:00:07.621Z,22.86
2018-07-19T07:02:35.864Z,22.96
2018-07-19T07:05:04.520Z,22.64
2018-07-19T07:07:32.747Z,23.02
2018-07-19T07:10:00.903Z,23.35
2018-07-19T07:12:29.050Z,23.16
2018-07-19T07:14:57.328Z,23.39
2018-07-19T07:17:25.836Z,23.38
2018-07-19T07:19:54.130Z,23.64
2018-07-19T07:22:22.342Z,23.74
2018-07-19T07:24:50.507Z,23.99
2018-07-19T07:27:18.967Z,24.21
2018-07-19T07:29:47.225Z,24.37
2018-07-19T07:32:15.497Z,24.22
2018-07-19T07:34:43.661Z,23.76
2018-07-19T07:37:11.856Z,23.95
2018-07-19T07:39:40.119Z,24.15
2018-07-19T07:42:08.401Z,24.18
2018-07-19T07:44:36.575Z,23.97
2018-07-19T07:47:04.814Z,24.55
2018-07-19T07:49:32.969Z,24.63
2018-07-19T07:52:01.139Z,24.18
2018-07-19T07:54:29.368Z,24.57
2018-07-19T07:56:57.583Z,24.43
2018-07-19T07:59:25.852Z,24.85
2018-07-19T08:01:53.963Z,25.28
2018-07-19T08:04:22.154Z,25.12
2018-07-19T08:06:50.778Z,25.27
2018-07-19T08:09:18.949Z,25.32
2018-07-19T08:11:47.206Z,25.47
2018-07-19T08:14:15.377Z,25.46
2018-07-19T08:16:43.564Z,25.17
2018-07-19T08:19:11.819Z,25.02
2018-07-19T08:21:40.032Z,25.47
2018-07-19T08:24:08.299Z,25.24
2018-07-19T08:26:36.625Z,25.37
2018-07-19T08:29:04.848Z,25.78
2018-07-19T08:31:33.005Z,26.11
2018-07-19T08:34:01.191Z,25.76
2018-07-19T08:36:29.353Z,25.71
2018-07-19T08:38:57.512Z,26.00
2018-07-19T08:41:25.690Z,26.03
2018-07-19T08:43:53.882Z,26.16
2018-07-19T08:46:22.046Z,26.26
2018-07-19T08:48:50.215Z,26.09
2018-07-19T08:51:18.415Z,26.39
2018-07-19T08:53:46.579Z,26.52
2018-07-19T08:56:14.739Z,25.97
2018-07-19T08:58:42.960Z,26.43
2018-07-19T09:01:11.131Z,26.49
2018-07-19T09:03:39.318Z,26.62
2018-07-19T09:06:07.491Z,26.98
2018-07-19T09:08:35.744Z,27.08
2018-07-19T09:11:03.901Z,26.97
2018-07-19T09:13:32.103Z,26.75
2018-07-19T09:16:00.339Z,26.66
2018-07-19T09:18:28.519Z,27.04
2018-07-19T09:20:56.713Z,26.79
2018-07-19T09:23:24.888Z,26.75
2018-07-19T09:25:53.052Z,26.94
2018-07-19T09:28:21.302Z,26.79
2018-07-19T09:30:49.516Z,26.59
2018-07-19T09:33:17.690Z,27.19
2018-07-19T09:35:45.878Z,27.35
2018-07-19T09:38:14.109Z,26.75
2018-07-19T09:40:42.282Z,27.14
2018-07-19T09:43:10.462Z,27.08
2018-07-19T09:45:38.684Z,26.81
2018-07-19T09:48:06.844Z,27.59
2018-07-19T09:50:35.026Z,27.53
2018-07-19T09:53:03.270Z,27.28
2018-07-19T09:55:31.944Z,26.95
2018-07-19T09:58:00.122Z,27.46
2018-07-19T10:00:33.897Z,27.40
2018-07-19T10:03:02.132Z,27.80
2018-07-19T10:05:30.297Z,28.15
2018-07-19T10:07:58.545Z,27.95
2018-07-19T10:10:26.748Z,27.85
2018-07-19T10:12:54.904Z,27.76
2018-07-19T10:15:23.097Z,28.42
2018-07-19T10:17:51.883Z,28.46
2018-07-19T10:20:20.057Z,28.28
2018-07-19T10:22:48.230Z,28.12
2018-07-19T10:25:17.048Z,28.45
2018-07-19T10:27:45.252Z,28.45
2018-07-19T10:30:13.454Z,28.66
2018-07-19T10:32:41.821Z,28.68
2018-07-19T10:35:09.988Z,28.67
2018-07-19T10:37:38.279Z,28.86
2018-07-19T10:40:06.596Z,29.32
2018-07-19T10:42:34.774Z,29.81
2018-07-19T10:45:02.989Z,29.59
2018-07-19T10:47:31.488Z,29.21
2018-07-19T10:49:59.678Z,29.49
2018-07-19T10:52:27.842Z,29.60
2018-07-19T10:54:56.022Z,29.61
2018-07-19T10:57:24.247Z,30.44
2018-07-19T10:59:52.374Z,30.75
2018-07-19T11:02:20.629Z,30.36
2018-07-19T11:04:48.955Z,31.15
2018-07-19T11:07:17.373Z,31.43
2018-07-19T11:09:45.614Z,31.41
2018-07-19T11:12:13.825Z,30.76
2018-07-19T11:14:42.001Z,30.83
2018-07-19T11:17:10.293Z,31.74
2018-07-19T11:19:38.505Z,31.07
2018-07-19T11:22:06.873Z,31.14
2018-07-19T11:24:35.113Z,32.04
2018-07-19T11:27:03.374Z,31.07
2018-07-19T11:29:31.581Z,38.40
2018-07-19T11:31:59.831Z,38.00
2018-07-19T11:34:28.104Z,39.27
2018-07-19T11:36:56.321Z,39.72
2018-07-19T11:39:24.878Z,39.44
2018-07-19T11:41:53.057Z,40.59
2018-07-19T11:44:21.302Z,42.51
2018-07-19T11:46:49.490Z,41.49
2018-07-19T11:49:17.662Z,39.26
2018-07-19T11:51:45.822Z,41.34
2018-07-19T11:54:14.314Z,44.44
2018-07-19T11:56:42.485Z,42.73
2018-07-19T11:59:10.634Z,41.81
2018-07-19T12:01:38.850Z,41.73
2018-07-19T12:04:06.966Z,44.07
2018-07-19T12:06:35.126Z,44.80
2018-07-19T12:09:04.409Z,43.64
2018-07-19T12:11:32.621Z,46.23
2018-07-19T12:14:00.773Z,48.68
2018-07-19T12:16:28.970Z,44.75
2018-07-19T12:18:57.145Z,48.57
2018-07-19T12:21:25.465Z,47.37
2018-07-19T12:23:53.680Z,45.31
2018-07-19T12:26:21.884Z,50.91
2018-07-19T12:28:50.027Z,48.42
2018-07-19T12:31:18.322Z,48.69
2018-07-19T12:33:46.986Z,50.08
2018-07-19T12:36:15.134Z,50.36
2018-07-19T12:38:43.308Z,46.70
2018-07-19T12:41:11.578Z,47.38
2018-07-19T12:43:39.769Z,48.42
2018-07-19T12:46:08.184Z,50.05
2018-07-19T12:48:36.429Z,48.84
2018-07-19T12:51:04.598Z,50.94
2018-07-19T12:53:32.781Z,48.10
2018-07-19T12:56:01.042Z,50.41
2018-07-19T12:58:29.340Z,50.18
2018-07-19T13:00:57.494Z,47.88
2018-07-19T13:03:27.280Z,50.70
2018-07-19T13:05:55.492Z,52.07
2018-07-19T13:08:24.552Z,52.14
2018-07-19T13:10:52.693Z,51.01
2018-07-19T13:13:20.857Z,52.04
2018-07-19T13:15:49.099Z,47.80
2018-07-19T13:18:17.273Z,49.95
2018-07-19T13:20:45.467Z,51.22
2018-07-19T13:23:13.621Z,51.89
2018-07-19T13:25:41.888Z,51.01
2018-07-19T13:28:10.201Z,46.07
2018-07-19T13:30:38.385Z,44.68
2018-07-19T13:33:06.585Z,50.62
2018-07-19T13:35:34.732Z,52.86
2018-07-19T13:38:02.905Z,53.17
2018-07-19T13:40:31.081Z,50.28
2018-07-19T13:42:59.226Z,52.30
2018-07-19T13:45:27.386Z,48.97
2018-07-19T13:47:55.544Z,47.46
2018-07-19T13:50:23.698Z,48.45
2018-07-19T13:53:03.329Z,48.76
2018-07-19T13:55:31.498Z,51.39
2018-07-19T13:57:59.658Z,49.15
2018-07-19T14:00:27.826Z,42.45
2018-07-19T14:02:55.974Z,52.77
2018-07-19T14:05:24.118Z,52.68
2018-07-19T14:07:52.286Z,44.89
2018-07-19T14:10:20.450Z,48.22
2018-07-19T14:12:48.618Z,48.28
2018-07-19T14:15:16.863Z,50.63
2018-07-19T14:17:45.018Z,50.06
2018-07-19T14:20:13.251Z,49.16
2018-07-19T14:22:41.536Z,46.06
2018-07-19T14:25:09.806Z,47.41
2018-07-19T14:27:37.985Z,45.71
2018-07-19T14:30:06.585Z,48.91
2018-07-19T14:32:34.849Z,51.71
2018-07-19T14:35:03.114Z,46.93
2018-07-19T14:37:31.303Z,40.65
2018-07-19T14:39:59.457Z,46.73
2018-07-19T14:42:27.636Z,46.59
2018-07-19T14:44:55.809Z,47.91
2018-07-19T14:47:24.179Z,53.84
2018-07-19T14:49:52.337Z,52.04
2018-07-19T14:52:20.493Z,53.53
2018-07-19T14:54:48.657Z,49.76
2018-07-19T14:57:16.899Z,50.84
2018-07-19T14:59:45.079Z,42.65
2018-07-19T15:02:13.298Z,41.74
2018-07-19T15:04:41.454Z,46.45
2018-07-19T15:07:09.957Z,45.50
2018-07-19T15:09:38.126Z,47.87
2018-07-19T15:12:06.530Z,46.05
2018-07-19T15:14:34.722Z,46.61
2018-07-19T15:17:02.891Z,43.56
2018-07-19T15:19:31.070Z,45.60
2018-07-19T15:21:59.373Z,42.28
2018-07-19T15:24:27.535Z,40.07
2018-07-19T15:26:55.803Z,43.81
2018-07-19T15:29:24.026Z,44.59
2018-07-19T15:31:52.237Z,43.26
2018-07-19T15:34:20.456Z,40.30
2018-07-19T15:36:48.705Z,37.84
2018-07-19T15:39:16.981Z,37.08
2018-07-19T15:41:45.241Z,38.87
2018-07-19T15:44:13.445Z,39.13
2018-07-19T15:46:41.609Z,39.92
2018-07-19T15:49:09.921Z,36.83
2018-07-19T15:51:38.451Z,35.83
2018-07-19T15:54:06.611Z,33.26
2018-07-19T15:56:34.796Z,35.31
2018-07-19T15:59:02.992Z,35.42
2018-07-19T16:01:31.209Z,36.30
2018-07-19T16:03:59.337Z,36.39
2018-07-19T16:06:27.756Z,40.53
2018-07-19T16:08:56.029Z,41.11
2018-07-19T16:11:24.258Z,40.31
2018-07-19T16:13:52.574Z,34.79
2018-07-19T16:16:20.960Z,33.76
2018-07-19T16:18:49.174Z,33.91
2018-07-19T16:21:17.374Z,32.48
2018-07-19T16:23:45.642Z,32.66
2018-07-19T16:26:13.816Z,33.25
2018-07-19T16:28:41.984Z,32.42
2018-07-19T16:31:10.182Z,32.07
2018-07-19T16:33:38.434Z,32.16
2018-07-19T16:36:06.628Z,32.27
2018-07-19T16:38:34.810Z,31.96
2018-07-19T16:41:03.074Z,32.34
2018-07-19T16:43:31.334Z,31.91
2018-07-19T16:45:59.499Z,31.88
2018-07-19T16:48:27.665Z,31.95
2018-07-19T16:50:55.849Z,31.73
2018-07-19T16:53:24.493Z,31.63
2018-07-19T16:55:52.883Z,31.27
2018-07-19T16:58:21.133Z,31.39
2018-07-19T17:00:49.261Z,30.50
2018-07-19T17:03:17.543Z,30.62
2018-07-19T17:05:45.825Z,30.78
2018-07-19T17:08:13.996Z,30.68
2018-07-19T17:10:42.269Z,30.33
2018-07-19T17:13:10.583Z,30.92
2018-07-19T17:15:38.909Z,30.95
2018-07-19T17:18:07.240Z,30.57
2018-07-19T17:20:35.522Z,30.71
2018-07-19T17:23:03.736Z,30.69
2018-07-19T17:25:32.018Z,30.70
2018-07-19T17:28:00.218Z,30.31
2018-07-19T17:30:28.782Z,30.43
2018-07-19T17:32:57.041Z,30.40
2018-07-19T17:35:25.381Z,29.90
2018-07-19T17:37:53.557Z,30.10
2018-07-19T17:40:21.773Z,30.19
2018-07-19T17:42:50.077Z,29.93
2018-07-19T17:45:18.253Z,30.04
2018-07-19T17:47:46.433Z,30.13
2018-07-19T17:50:14.692Z,29.84
2018-07-19T17:52:42.868Z,29.96
2018-07-19T17:55:11.403Z,29.67
2018-07-19T17:57:39.647Z,29.57
2018-07-19T18:00:07.831Z,29.40
2018-07-19T18:02:36.062Z,29.41
2018-07-19T18:05:04.276Z,29.11
2018-07-19T18:07:32.456Z,29.21
2018-07-19T18:10:00.640Z,29.04
2018-07-19T18:12:28.864Z,28.93
2018-07-19T18:14:57.280Z,28.72
2018-07-19T18:17:25.707Z,28.58
2018-07-19T18:19:53.892Z,28.44
2018-07-19T18:22:22.684Z,28.19
2018-07-19T18:24:50.874Z,28.38
2018-07-19T18:27:19.074Z,28.34
2018-07-19T18:29:47.263Z,28.17
2018-07-19T18:32:15.402Z,27.97
2018-07-19T18:34:43.821Z,27.98
2018-07-19T18:37:15.409Z,27.75
2018-07-19T18:39:44.385Z,27.57
2018-07-19T18:42:12.553Z,27.34
2018-07-19T18:44:41.688Z,27.32
2018-07-19T18:47:10.400Z,27.37
2018-07-19T18:49:38.696Z,27.10
2018-07-19T18:52:06.909Z,26.96
2018-07-19T18:54:35.201Z,26.81
2018-07-19T18:57:03.571Z,26.45
2018-07-19T18:59:31.736Z,26.35
2018-07-19T19:02:00.439Z,26.38
2018-07-19T19:04:29.081Z,26.31
2018-07-19T19:06:57.273Z,26.16
2018-07-19T19:09:25.919Z,26.18
2018-07-19T19:11:54.130Z,25.99
2018-07-19T19:14:22.894Z,25.76
2018-07-19T19:16:51.114Z,25.78
2018-07-19T19:19:19.342Z,25.60
2018-07-19T19:21:47.581Z,25.53
2018-07-19T19:24:15.788Z,25.41
2018-07-19T19:26:44.398Z,25.32
2018-07-19T19:29:12.982Z,25.22
2018-07-19T19:31:41.171Z,25.09
2018-07-19T19:34:10.159Z,25.02
2018-07-19T19:36:38.334Z,24.96
2018-07-19T19:39:10.457Z,24.85
2018-07-19T19:41:38.765Z,24.82
2018-07-19T19:44:07.041Z,24.63
2018-07-19T19:46:35.250Z,24.58
2018-07-19T19:49:03.419Z,24.50
2018-07-19T19:51:31.591Z,24.33
2018-07-19T19:53:59.812Z,24.24
2018-07-19T19:56:27.929Z,24.03
2018-07-19T19:58:56.222Z,24.05
2018-07-19T20:01:24.631Z,23.86
2018-07-19T20:03:52.825Z,23.75
2018-07-19T20:06:21.175Z,23.79
2018-07-19T20:08:49.392Z,23.67
2018-07-19T20:11:17.560Z,23.65
2018-07-19T20:13:45.755Z,23.64
2018-07-19T20:16:14.023Z,23.55
2018-07-19T20:18:42.207Z,23.49
2018-07-19T20:21:10.422Z,23.21
2018-07-19T20:23:38.614Z,23.26
2018-07-19T20:26:07.004Z,23.11
2018-07-19T20:28:35.229Z,23.04
2018-07-19T20:31:03.440Z,23.12
2018-07-19T20:33:31.692Z,23.08
2018-07-19T20:35:59.926Z,22.97
2018-07-19T20:38:28.127Z,22.88
2018-07-19T20:40:56.382Z,22.58
2018-07-19T20:43:24.682Z,22.58
2018-07-19T20:45:52.897Z,22.53
2018-07-19T20:48:21.081Z,22.60
2018-07-19T20:50:49.594Z,22.53
2018-07-19T20:53:17.804Z,22.49
2018-07-19T20:55:45.973Z,22.39
2018-07-19T20:58:14.162Z,22.27
2018-07-19T21:00:42.362Z,22.15
2018-07-19T21:03:11.249Z,21.99
2018-07-19T21:05:39.483Z,21.98
2018-07-19T21:08:07.685Z,21.93
2018-07-19T21:10:35.881Z,21.75
2018-07-19T21:13:04.058Z,21.85
2018-07-19T21:15:32.252Z,21.66
2018-07-19T21:18:00.506Z,21.52
2018-07-19T21:20:28.769Z,21.55
2018-07-19T21:22:56.968Z,21.37
2018-07-19T21:25:25.868Z,21.42
2018-07-19T21:27:54.348Z,21.35
2018-07-19T21:30:22.528Z,21.27
2018-07-19T21:32:50.827Z,21.28
2018-07-19T21:35:19.015Z,21.31
2018-07-19T21:37:47.186Z,20.92
2018-07-19T21:40:15.418Z,21.12
2018-07-19T21:42:43.726Z,21.06
2018-07-19T21:45:11.960Z,20.85
2018-07-19T21:47:40.125Z,20.80
2018-07-19T21:50:08.292Z,20.68
2018-07-19T21:52:36.482Z,20.68
2018-07-19T21:55:04.690Z,20.52
2018-07-19T21:57:32.846Z,20.56
2018-07-19T22:00:01.110Z,20.42
2018-07-19T22:02:29.290Z,20.41
2018-07-19T22:04:57.442Z,20.32
2018-07-19T22:07:25.626Z,20.24
2018-07-19T22:09:53.786Z,20.16
2018-07-19T22:12:21.977Z,20.07
2018-07-19T22:14:50.160Z,20.15
2018-07-19T22:17:18.449Z,19.91
2018-07-19T22:19:46.691Z,19.85
2018-07-19T22:22:14.874Z,19.85
2018-07-19T22:24:43.211Z,19.80
2018-07-19T22:27:11.380Z,19.52
2018-07-19T22:29:39.596Z,19.67
2018-07-19T22:32:07.770Z,19.47
2018-07-19T22:34:36.163Z,19.45
2018-07-19T22:37:04.442Z,19.26
2018-07-19T22:39:32.602Z,19.16
2018-07-19T22:42:00.758Z,19.13
2018-07-19T22:44:28.954Z,19.12
2018-07-19T22:46:57.148Z,18.91
2018-07-19T22:49:25.299Z,18.98
2018-07-19T22:51:53.550Z,19.01
2018-07-19T22:54:21.732Z,19.06
2018-07-19T22:56:49.894Z,18.98
2018-07-19T22:59:18.066Z,18.94
2018-07-19T23:01:46.234Z,18.89
2018-07-19T23:04:14.558Z,18.86
2018-07-19T23:06:42.725Z,18.79
2018-07-19T23:09:11.301Z,18.74
2018-07-19T23:11:39.789Z,18.64
2018-07-19T23:14:08.293Z,18.60
2018-07-19T23:16:36.527Z,18.64
2018-07-19T23:19:04.686Z,18.50
2018-07-19T23:21:32.885Z,18.50
2018-07-19T23:24:01.061Z,18.44
2018-07-19T23:26:29.221Z,18.56
2018-07-19T23:28:57.425Z,18.31
2018-07-19T23:31:25.606Z,18.23
2018-07-19T23:33:53.875Z,18.30
2018-07-19T23:36:25.285Z,18.10
2018-07-19T23:38:56.625Z,18.22
2018-07-19T23:41:30.168Z,18.33
2018-07-19T23:44:02.099Z,18.12
2018-07-19T23:46:34.363Z,17.88
2018-07-19T23:49:07.541Z,17.94
2018-07-19T23:51:37.242Z,17.99
2018-07-19T23:54:05.395Z,17.85
2018-07-19T23:56:34.150Z,17.95
2018-07-19T23:59:02.558Z,17.73
